Terminal Aerodrome Forecast
Issued by NWS Central Illinois

Home | Current Version | Previous Version | Text Only | Print | Product List | Glossary On
Versions: 1 2 3 4 5 6 7 8 9 10 11 12 13 14 15 16 17 18 19 20 21 22 23 24 25 26 27
000
FTUS43 KILX 301753
TAFSPI
TAF
KSPI 301753Z 3018/3118 20008KT P6SM VCTS SCT005CB BKN080
      TEMPO 3019/3021 2SM TSRA BR OVC005CB
     FM302300 28010KT P6SM VCTS SCT005CB BKN080
     FM310200 29010KT 4SM -RA BR OVC003
     FM311400 33014KT P6SM VCSH OVC008=

USA.gov is the U.S. government's official web portal to all federal, state and local government web resources and services.